createdAt,value
2023-01-02T00:00:04.501Z,1014.48
2023-01-02T00:00:19.098Z,1014.44
2023-01-02T00:00:23.336Z,1014.49
2023-01-02T00:00:32.804Z,1014.46
2023-01-02T00:00:42.188Z,1014.54
2023-01-02T00:00:51.868Z,1014.45
2023-01-02T00:01:01.332Z,1014.52
2023-01-02T00:01:10.633Z,1014.52
2023-01-02T00:01:20.034Z,1014.54
2023-01-02T00:01:29.468Z,1014.52
2023-01-02T00:01:38.866Z,1014.47
2023-01-02T00:01:48.329Z,1014.38
2023-01-02T00:01:57.775Z,1014.48
2023-01-02T00:02:07.183Z,1014.48
2023-01-02T00:02:16.691Z,1014.46
2023-01-02T00:02:26.161Z,1014.50
2023-01-02T00:02:35.616Z,1014.50
2023-01-02T00:02:54.389Z,1014.48
2023-01-02T00:03:03.787Z,1014.39
2023-01-02T00:03:13.198Z,1014.42
2023-01-02T00:03:22.709Z,1014.44
2023-01-02T00:03:32.129Z,1014.44
2023-01-02T00:03:41.537Z,1014.44
2023-01-02T00:03:51.286Z,1014.39
2023-01-02T00:04:00.781Z,1014.40
2023-01-02T00:04:10.010Z,1014.36
2023-01-02T00:04:19.424Z,1014.49
2023-01-02T00:04:28.835Z,1014.38
2023-01-02T00:04:38.238Z,1014.37
2023-01-02T00:04:47.699Z,1014.44
2023-01-02T00:04:57.135Z,1014.50
2023-01-02T00:05:06.522Z,1014.46
2023-01-02T00:05:15.937Z,1014.38
2023-01-02T00:05:25.651Z,1014.34
2023-01-02T00:05:44.469Z,1014.48
2023-01-02T00:05:53.877Z,1014.42
2023-01-02T00:06:03.333Z,1014.46
2023-01-02T00:06:12.762Z,1014.50
2023-01-02T00:06:22.148Z,1014.40
2023-01-02T00:06:31.664Z,1014.40
2023-01-02T00:06:41.091Z,1014.50
2023-01-02T00:06:50.666Z,1014.50
2023-01-02T00:07:00.073Z,1014.46
2023-01-02T00:07:09.492Z,1014.40
2023-01-02T00:07:18.869Z,1014.38
2023-01-02T00:07:28.281Z,1014.36
2023-01-02T00:07:37.683Z,1014.34
2023-01-02T00:07:47.105Z,1014.36
2023-01-02T00:07:56.508Z,1014.44
2023-01-02T00:08:05.913Z,1014.42
2023-01-02T00:08:24.718Z,1014.44
2023-01-02T00:08:34.137Z,1014.42
2023-01-02T00:08:43.601Z,1014.43
2023-01-02T00:08:53.011Z,1014.46
2023-01-02T00:09:02.448Z,1014.47
2023-01-02T00:09:11.845Z,1014.43
2023-01-02T00:09:21.484Z,1014.47
2023-01-02T00:09:30.887Z,1014.44
2023-01-02T00:09:40.291Z,1014.45
2023-01-02T00:09:49.686Z,1014.37
2023-01-02T00:10:01.427Z,1014.33
2023-01-02T00:10:10.809Z,1014.38
2023-01-02T00:10:20.234Z,1014.40
2023-01-02T00:10:29.634Z,1014.38
2023-01-02T00:10:39.042Z,1014.42
2023-01-02T00:10:52.666Z,1014.30
2023-01-02T00:10:57.877Z,1014.41
2023-01-02T00:11:07.317Z,1014.38
2023-01-02T00:11:16.716Z,1014.36
2023-01-02T00:11:26.111Z,1014.39
2023-01-02T00:11:35.530Z,1014.34
2023-01-02T00:11:54.345Z,1014.31
2023-01-02T00:12:03.750Z,1014.35
2023-01-02T00:12:13.185Z,1014.40
2023-01-02T00:12:22.745Z,1014.37
2023-01-02T00:12:32.147Z,1014.34
2023-01-02T00:12:41.555Z,1014.38
2023-01-02T00:12:50.957Z,1014.38
2023-01-02T00:13:00.363Z,1014.43
2023-01-02T00:13:09.769Z,1014.41
2023-01-02T00:13:19.229Z,1014.25
2023-01-02T00:13:28.655Z,1014.29
2023-01-02T00:13:38.056Z,1014.38
2023-01-02T00:13:47.465Z,1014.31
2023-01-02T00:13:56.871Z,1014.29
2023-01-02T00:14:06.288Z,1014.26
2023-01-02T00:14:15.956Z,1014.27
2023-01-02T00:14:34.780Z,1014.35
2023-01-02T00:14:44.201Z,1014.33
2023-01-02T00:14:53.596Z,1014.35
2023-01-02T00:15:03.016Z,1014.27
2023-01-02T00:15:12.458Z,1014.26
2023-01-02T00:15:22.940Z,1014.29
2023-01-02T00:15:32.352Z,1014.32
2023-01-02T00:15:41.920Z,1014.29
2023-01-02T00:15:51.276Z,1014.23
2023-01-02T00:16:00.653Z,1014.26
2023-01-02T00:16:10.124Z,1014.23
2023-01-02T00:16:19.447Z,1014.29
2023-01-02T00:16:28.869Z,1014.28
2023-01-02T00:16:38.313Z,1014.28
2023-01-02T00:16:47.677Z,1014.32
2023-01-02T00:16:57.091Z,1014.26
2023-01-02T00:17:06.492Z,1014.21
2023-01-02T00:17:15.927Z,1014.29
2023-01-02T00:17:34.747Z,1014.18
2023-01-02T00:17:44.150Z,1014.29
2023-01-02T00:17:53.569Z,1014.24
2023-01-02T00:18:02.971Z,1014.22
2023-01-02T00:18:12.393Z,1014.21
2023-01-02T00:18:21.788Z,1014.23
2023-01-02T00:18:31.202Z,1014.18
2023-01-02T00:18:40.641Z,1014.28
2023-01-02T00:18:50.059Z,1014.26
2023-01-02T00:18:59.461Z,1014.17
2023-01-02T00:19:08.895Z,1014.23
2023-01-02T00:19:18.302Z,1014.18
2023-01-02T00:19:27.723Z,1014.14
2023-01-02T00:19:37.154Z,1014.21
2023-01-02T00:19:46.567Z,1014.18
2023-01-02T00:19:55.993Z,1014.21
2023-01-02T00:20:05.419Z,1014.18
2023-01-02T00:20:24.201Z,1014.22
2023-01-02T00:20:33.620Z,1014.23
2023-01-02T00:20:43.029Z,1014.29
2023-01-02T00:20:52.466Z,1014.29
2023-01-02T00:21:01.872Z,1014.21
2023-01-02T00:21:11.325Z,1014.28
2023-01-02T00:21:20.725Z,1014.17
2023-01-02T00:21:30.142Z,1014.22
2023-01-02T00:21:39.620Z,1014.19
2023-01-02T00:21:49.084Z,1014.18
2023-01-02T00:21:58.510Z,1014.16
2023-01-02T00:22:07.928Z,1014.17
2023-01-02T00:22:17.367Z,1014.20
2023-01-02T00:22:26.756Z,1014.18
2023-01-02T00:22:36.151Z,1014.15
2023-01-02T00:22:45.570Z,1014.18
2023-01-02T00:23:04.405Z,1014.15
2023-01-02T00:23:13.823Z,1014.15
2023-01-02T00:23:23.224Z,1014.26
2023-01-02T00:23:32.638Z,1014.14
2023-01-02T00:23:42.049Z,1014.20
2023-01-02T00:23:51.466Z,1014.23
2023-01-02T00:24:00.901Z,1014.18
2023-01-02T00:24:10.308Z,1014.20
2023-01-02T00:24:19.727Z,1014.26
2023-01-02T00:24:29.169Z,1014.23
2023-01-02T00:24:38.578Z,1014.22
2023-01-02T00:24:47.998Z,1014.23
2023-01-02T00:24:57.408Z,1014.22
2023-01-02T00:25:06.810Z,1014.09
2023-01-02T00:25:16.194Z,1014.14
2023-01-02T00:25:25.624Z,1014.20
2023-01-02T00:25:44.462Z,1014.24
2023-01-02T00:25:53.884Z,1014.24
2023-01-02T00:26:03.260Z,1014.19
2023-01-02T00:26:12.677Z,1014.23
2023-01-02T00:26:22.215Z,1014.19
2023-01-02T00:26:31.620Z,1014.19
2023-01-02T00:26:41.011Z,1014.25
2023-01-02T00:26:50.438Z,1014.20
2023-01-02T00:26:59.864Z,1014.18
2023-01-02T00:27:09.287Z,1014.22
2023-01-02T00:27:18.674Z,1014.18
2023-01-02T00:27:28.087Z,1014.21
2023-01-02T00:27:37.513Z,1014.18
2023-01-02T00:27:46.935Z,1014.14
2023-01-02T00:27:56.356Z,1014.21
2023-01-02T00:28:05.808Z,1014.17
2023-01-02T00:28:24.623Z,1014.19
2023-01-02T00:28:34.013Z,1014.17
2023-01-02T00:28:43.422Z,1014.19
2023-01-02T00:28:52.844Z,1014.17
2023-01-02T00:29:02.247Z,1014.16
2023-01-02T00:29:11.673Z,1014.11
2023-01-02T00:29:21.067Z,1014.29
2023-01-02T00:29:30.496Z,1014.21
2023-01-02T00:29:39.888Z,1014.27
2023-01-02T00:29:49.312Z,1014.25
2023-01-02T00:29:58.755Z,1014.21
2023-01-02T00:30:08.145Z,1014.11
2023-01-02T00:30:17.528Z,1014.13
2023-01-02T00:30:31.013Z,1014.16
2023-01-02T00:30:38.628Z,1014.29
2023-01-02T00:30:45.780Z,1014.10
2023-01-02T00:31:04.633Z,1014.13
2023-01-02T00:31:14.164Z,1014.15
2023-01-02T00:31:23.460Z,1014.12
2023-01-02T00:31:32.966Z,1014.15
2023-01-02T00:31:42.316Z,1014.20
2023-01-02T00:31:51.640Z,1014.09
2023-01-02T00:32:01.059Z,1014.09
2023-01-02T00:32:10.453Z,1014.13
2023-01-02T00:32:19.878Z,1014.15
2023-01-02T00:32:29.287Z,1014.08
2023-01-02T00:32:38.719Z,1014.11
2023-01-02T00:32:48.110Z,1014.11
2023-01-02T00:32:57.515Z,1014.05
2023-01-02T00:33:06.915Z,1014.10
2023-01-02T00:33:16.293Z,1014.08
2023-01-02T00:33:25.722Z,1014.02
2023-01-02T00:33:47.377Z,1014.08
2023-01-02T00:33:56.807Z,1014.07
2023-01-02T00:34:06.282Z,1013.95
2023-01-02T00:34:15.695Z,1014.02
2023-01-02T00:34:25.073Z,1014.03
2023-01-02T00:34:34.482Z,1014.01
2023-01-02T00:34:43.897Z,1013.99
2023-01-02T00:34:53.274Z,1013.99
2023-01-02T00:35:02.721Z,1013.93
2023-01-02T00:35:12.158Z,1014.03
2023-01-02T00:35:21.531Z,1013.95
2023-01-02T00:35:30.949Z,1014.00
2023-01-02T00:35:40.343Z,1014.03
2023-01-02T00:35:49.750Z,1013.99
2023-01-02T00:35:59.133Z,1013.95
2023-01-02T00:36:08.558Z,1013.97
2023-01-02T00:36:17.962Z,1013.97
2023-01-02T00:36:27.363Z,1013.95
2023-01-02T00:36:36.768Z,1013.92
2023-01-02T00:36:46.170Z,1013.95
2023-01-02T00:36:55.602Z,1013.92
2023-01-02T00:37:14.472Z,1013.92
2023-01-02T00:37:23.868Z,1013.95
2023-01-02T00:37:33.298Z,1013.91
2023-01-02T00:37:42.709Z,1013.98
2023-01-02T00:37:52.113Z,1013.89
2023-01-02T00:38:01.515Z,1013.91
2023-01-02T00:38:10.907Z,1013.92
2023-01-02T00:38:20.298Z,1013.89
2023-01-02T00:38:29.713Z,1013.94
2023-01-02T00:38:39.120Z,1013.91
2023-01-02T00:38:48.523Z,1013.96
2023-01-02T00:38:57.943Z,1013.92
2023-01-02T00:39:07.332Z,1013.94
2023-01-02T00:39:16.759Z,1013.92
2023-01-02T00:39:26.523Z,1013.88
2023-01-02T00:39:35.579Z,1013.91
2023-01-02T00:39:54.352Z,1013.91
2023-01-02T00:40:03.754Z,1013.92
2023-01-02T00:40:13.173Z,1013.93
2023-01-02T00:40:22.610Z,1013.93
2023-01-02T00:40:32.018Z,1013.90
2023-01-02T00:40:41.424Z,1013.86
2023-01-02T00:40:50.829Z,1013.87
2023-01-02T00:41:00.240Z,1013.88
2023-01-02T00:41:09.706Z,1013.89
2023-01-02T00:41:19.113Z,1013.91
2023-01-02T00:41:28.501Z,1013.86
2023-01-02T00:41:37.910Z,1013.88
2023-01-02T00:41:47.336Z,1013.86
2023-01-02T00:41:56.771Z,1013.82
2023-01-02T00:42:06.180Z,1013.86
2023-01-02T00:42:15.597Z,1013.86
2023-01-02T00:42:34.436Z,1013.86
2023-01-02T00:42:43.879Z,1013.85
2023-01-02T00:42:53.275Z,1013.83
2023-01-02T00:43:02.756Z,1013.87
2023-01-02T00:43:12.157Z,1013.86
2023-01-02T00:43:21.541Z,1013.91
2023-01-02T00:43:30.970Z,1013.89
2023-01-02T00:43:40.397Z,1013.81
2023-01-02T00:43:49.763Z,1013.85
2023-01-02T00:43:59.187Z,1013.82
2023-01-02T00:44:08.628Z,1013.89
2023-01-02T00:44:18.027Z,1013.84
2023-01-02T00:44:27.456Z,1013.79
2023-01-02T00:44:36.939Z,1013.83
2023-01-02T00:44:46.352Z,1013.87
2023-01-02T00:44:55.766Z,1013.85
2023-01-02T00:45:14.595Z,1013.83
2023-01-02T00:45:23.995Z,1013.85
2023-01-02T00:45:33.384Z,1013.85
2023-01-02T00:45:42.766Z,1013.83
2023-01-02T00:45:52.173Z,1013.86
2023-01-02T00:46:04.911Z,1013.82
2023-01-02T00:46:12.239Z,1013.80
2023-01-02T00:46:20.527Z,1013.78
2023-01-02T00:46:29.900Z,1013.76
2023-01-02T00:46:39.246Z,1013.81
2023-01-02T00:46:48.624Z,1013.83
2023-01-02T00:46:58.057Z,1013.80
2023-01-02T00:47:07.464Z,1013.83
2023-01-02T00:47:16.809Z,1013.82
2023-01-02T00:47:26.218Z,1013.79
2023-01-02T00:47:35.629Z,1013.78
2023-01-02T00:47:54.446Z,1013.83
2023-01-02T00:48:03.822Z,1013.80
2023-01-02T00:48:13.240Z,1013.82
2023-01-02T00:48:22.650Z,1013.85
2023-01-02T00:48:32.066Z,1013.79
2023-01-02T00:48:41.503Z,1013.80
2023-01-02T00:48:50.892Z,1013.86
2023-01-02T00:49:00.318Z,1013.75
2023-01-02T00:49:09.712Z,1013.84
2023-01-02T00:49:19.134Z,1013.74
2023-01-02T00:49:28.554Z,1013.71
2023-01-02T00:49:37.955Z,1013.82
2023-01-02T00:49:47.390Z,1013.78
2023-01-02T00:49:56.860Z,1013.71
2023-01-02T00:50:06.272Z,1013.76
2023-01-02T00:50:15.693Z,1013.78
2023-01-02T00:50:34.504Z,1013.73
2023-01-02T00:50:43.935Z,1013.76
2023-01-02T00:50:53.333Z,1013.72
2023-01-02T00:51:02.768Z,1013.79
2023-01-02T00:51:12.186Z,1013.85
2023-01-02T00:51:21.607Z,1013.77
2023-01-02T00:51:31.004Z,1013.78
2023-01-02T00:51:40.405Z,1013.73
2023-01-02T00:51:49.783Z,1013.77
2023-01-02T00:51:59.175Z,1013.70
2023-01-02T00:52:08.565Z,1013.65
2023-01-02T00:52:17.963Z,1013.74
2023-01-02T00:52:27.422Z,1013.70
2023-01-02T00:52:36.820Z,1013.68
2023-01-02T00:52:46.215Z,1013.71
2023-01-02T00:52:55.609Z,1013.62
2023-01-02T00:53:14.426Z,1013.71
2023-01-02T00:53:23.814Z,1013.69
2023-01-02T00:53:33.237Z,1013.68
2023-01-02T00:53:42.641Z,1013.66
2023-01-02T00:53:52.061Z,1013.70
2023-01-02T00:54:01.543Z,1013.61
2023-01-02T00:54:10.932Z,1013.61
2023-01-02T00:54:20.350Z,1013.69
2023-01-02T00:54:29.731Z,1013.70
2023-01-02T00:54:39.146Z,1013.67
2023-01-02T00:54:48.538Z,1013.69
2023-01-02T00:54:57.946Z,1013.69
2023-01-02T00:55:07.335Z,1013.66
2023-01-02T00:55:16.745Z,1013.61
2023-01-02T00:55:26.169Z,1013.64
2023-01-02T00:55:35.575Z,1013.66
2023-01-02T00:55:54.389Z,1013.63
2023-01-02T00:56:03.823Z,1013.63
2023-01-02T00:56:13.213Z,1013.66
2023-01-02T00:56:22.621Z,1013.66
2023-01-02T00:56:32.023Z,1013.66
2023-01-02T00:56:41.428Z,1013.58
2023-01-02T00:56:50.853Z,1013.60
2023-01-02T00:57:00.276Z,1013.62
2023-01-02T00:57:09.715Z,1013.63
2023-01-02T00:57:19.117Z,1013.60
2023-01-02T00:57:28.498Z,1013.62
2023-01-02T00:57:37.879Z,1013.61
2023-01-02T00:57:47.281Z,1013.55
2023-01-02T00:57:56.731Z,1013.64
2023-01-02T00:58:06.153Z,1013.60
2023-01-02T00:58:15.555Z,1013.64
2023-01-02T00:58:34.333Z,1013.59
2023-01-02T00:58:43.714Z,1013.58
2023-01-02T00:58:53.294Z,1013.65
2023-01-02T00:59:04.652Z,1013.65
2023-01-02T00:59:14.067Z,1013.64
2023-01-02T00:59:23.459Z,1013.61
2023-01-02T00:59:32.897Z,1013.60
2023-01-02T00:59:42.289Z,1013.67
2023-01-02T00:59:51.698Z,1013.66
2023-01-02T01:00:01.114Z,1013.64
2023-01-02T01:00:10.551Z,1013.62
2023-01-02T01:00:23.848Z,1013.67
2023-01-02T01:00:29.452Z,1013.64
2023-01-02T01:00:38.807Z,1013.65
2023-01-02T01:00:48.164Z,1013.52
2023-01-02T01:00:57.700Z,1013.60
2023-01-02T01:01:07.092Z,1013.62
2023-01-02T01:01:16.591Z,1013.65
2023-01-02T01:01:25.992Z,1013.62
2023-01-02T01:01:44.917Z,1013.56
2023-01-02T01:01:54.227Z,1013.58
2023-01-02T01:02:03.685Z,1013.61
2023-01-02T01:02:13.012Z,1013.63
2023-01-02T01:02:22.429Z,1013.64
2023-01-02T01:02:31.932Z,1013.61
2023-01-02T01:02:41.219Z,1013.58
2023-01-02T01:02:50.631Z,1013.58
2023-01-02T01:03:00.103Z,1013.61
2023-01-02T01:03:09.476Z,1013.59
2023-01-02T01:03:18.824Z,1013.63
2023-01-02T01:03:28.208Z,1013.65
2023-01-02T01:03:37.613Z,1013.65
2023-01-02T01:03:47.008Z,1013.64
2023-01-02T01:03:56.417Z,1013.60
2023-01-02T01:04:05.847Z,1013.60
2023-01-02T01:04:24.659Z,1013.58
2023-01-02T01:04:34.075Z,1013.57
2023-01-02T01:04:43.498Z,1013.61
2023-01-02T01:04:52.896Z,1013.58
2023-01-02T01:05:02.289Z,1013.55
2023-01-02T01:05:11.708Z,1013.60
2023-01-02T01:05:21.120Z,1013.63
2023-01-02T01:05:30.530Z,1013.60
2023-01-02T01:05:39.938Z,1013.60
2023-01-02T01:05:49.348Z,1013.56
2023-01-02T01:05:58.745Z,1013.61
2023-01-02T01:06:08.154Z,1013.59
2023-01-02T01:06:17.552Z,1013.58
2023-01-02T01:06:26.973Z,1013.60
2023-01-02T01:06:36.371Z,1013.56
2023-01-02T01:06:45.794Z,1013.60
2023-01-02T01:07:04.582Z,1013.57
2023-01-02T01:07:13.991Z,1013.58
2023-01-02T01:07:23.376Z,1013.58
2023-01-02T01:07:32.786Z,1013.53
2023-01-02T01:07:42.190Z,1013.57
2023-01-02T01:07:51.597Z,1013.55
2023-01-02T01:08:01.018Z,1013.56
2023-01-02T01:08:10.439Z,1013.55
2023-01-02T01:08:19.867Z,1013.60
2023-01-02T01:08:29.274Z,1013.55
2023-01-02T01:08:38.668Z,1013.52
2023-01-02T01:08:48.063Z,1013.55
2023-01-02T01:08:57.464Z,1013.54
2023-01-02T01:09:06.890Z,1013.58
2023-01-02T01:09:16.294Z,1013.52
2023-01-02T01:09:25.715Z,1013.52
2023-01-02T01:09:44.578Z,1013.53
2023-01-02T01:09:53.986Z,1013.55
2023-01-02T01:10:03.375Z,1013.54
2023-01-02T01:10:12.807Z,1013.52
2023-01-02T01:10:22.189Z,1013.51
2023-01-02T01:10:31.607Z,1013.50
2023-01-02T01:10:41.011Z,1013.49
2023-01-02T01:10:50.397Z,1013.48
2023-01-02T01:10:59.796Z,1013.54
2023-01-02T01:11:09.216Z,1013.53
2023-01-02T01:11:18.619Z,1013.56
2023-01-02T01:11:28.060Z,1013.53
2023-01-02T01:11:37.443Z,1013.58
2023-01-02T01:11:46.871Z,1013.52
2023-01-02T01:11:56.253Z,1013.54
2023-01-02T01:12:05.636Z,1013.59
2023-01-02T01:12:24.447Z,1013.57
2023-01-02T01:12:33.836Z,1013.57
2023-01-02T01:12:43.231Z,1013.53
2023-01-02T01:12:52.657Z,1013.53
2023-01-02T01:13:02.060Z,1013.52
2023-01-02T01:13:11.489Z,1013.48
2023-01-02T01:13:20.877Z,1013.52
2023-01-02T01:13:30.302Z,1013.45
2023-01-02T01:13:39.707Z,1013.51
2023-01-02T01:13:49.125Z,1013.51
2023-01-02T01:13:58.511Z,1013.43
2023-01-02T01:14:07.949Z,1013.53
2023-01-02T01:14:17.367Z,1013.46
2023-01-02T01:14:26.770Z,1013.55
2023-01-02T01:14:36.173Z,1013.44
2023-01-02T01:14:45.604Z,1013.49
2023-01-02T01:15:04.415Z,1013.47
2023-01-02T01:15:13.810Z,1013.45
2023-01-02T01:15:23.231Z,1013.49
2023-01-02T01:15:32.613Z,1013.40
2023-01-02T01:15:42.038Z,1013.43
2023-01-02T01:15:51.588Z,1013.53
2023-01-02T01:16:00.956Z,1013.48
2023-01-02T01:16:10.347Z,1013.46
2023-01-02T01:16:19.781Z,1013.52
2023-01-02T01:16:29.248Z,1013.49
2023-01-02T01:16:38.696Z,1013.55
2023-01-02T01:16:48.006Z,1013.43
2023-01-02T01:16:57.412Z,1013.45
2023-01-02T01:17:06.812Z,1013.44
2023-01-02T01:17:16.205Z,1013.52
2023-01-02T01:17:25.600Z,1013.53
2023-01-02T01:17:44.428Z,1013.50
2023-01-02T01:17:53.859Z,1013.44
2023-01-02T01:18:03.277Z,1013.46
2023-01-02T01:18:12.687Z,1013.51
2023-01-02T01:18:22.111Z,1013.48
2023-01-02T01:18:31.548Z,1013.42
2023-01-02T01:18:40.947Z,1013.48
2023-01-02T01:18:50.400Z,1013.52
2023-01-02T01:18:59.805Z,1013.51
2023-01-02T01:19:09.253Z,1013.47
2023-01-02T01:19:18.649Z,1013.52
2023-01-02T01:19:28.066Z,1013.47
2023-01-02T01:19:37.494Z,1013.47
2023-01-02T01:19:46.879Z,1013.54
2023-01-02T01:19:56.280Z,1013.47
2023-01-02T01:20:05.692Z,1013.49
2023-01-02T01:20:24.497Z,1013.50
2023-01-02T01:20:33.906Z,1013.49
2023-01-02T01:20:43.288Z,1013.46
2023-01-02T01:20:52.698Z,1013.55
2023-01-02T01:21:02.099Z,1013.52
2023-01-02T01:21:11.556Z,1013.47
2023-01-02T01:21:20.907Z,1013.48
2023-01-02T01:21:30.301Z,1013.48
2023-01-02T01:21:39.702Z,1013.46
2023-01-02T01:21:49.095Z,1013.43
2023-01-02T01:21:58.529Z,1013.45
2023-01-02T01:22:07.969Z,1013.46
2023-01-02T01:22:17.394Z,1013.47
2023-01-02T01:22:26.829Z,1013.46
2023-01-02T01:22:36.237Z,1013.49
2023-01-02T01:22:45.653Z,1013.46
2023-01-02T01:23:04.474Z,1013.48
2023-01-02T01:23:13.878Z,1013.50
2023-01-02T01:23:23.274Z,1013.49
2023-01-02T01:23:32.673Z,1013.43
2023-01-02T01:23:42.113Z,1013.44
2023-01-02T01:23:51.589Z,1013.47
2023-01-02T01:24:00.971Z,1013.41
2023-01-02T01:24:10.505Z,1013.40
2023-01-02T01:24:19.901Z,1013.38
2023-01-02T01:24:29.321Z,1013.40
2023-01-02T01:24:38.725Z,1013.46
2023-01-02T01:24:48.135Z,1013.36
2023-01-02T01:24:57.520Z,1013.42
2023-01-02T01:25:06.939Z,1013.39
2023-01-02T01:25:16.403Z,1013.38
2023-01-02T01:25:25.823Z,1013.48
2023-01-02T01:25:44.624Z,1013.37
2023-01-02T01:25:54.037Z,1013.43
2023-01-02T01:26:03.448Z,1013.49
2023-01-02T01:26:12.865Z,1013.38
2023-01-02T01:26:22.277Z,1013.39
2023-01-02T01:26:31.689Z,1013.35
2023-01-02T01:26:41.096Z,1013.38
2023-01-02T01:26:50.519Z,1013.42
2023-01-02T01:26:59.929Z,1013.35
2023-01-02T01:27:09.380Z,1013.37
2023-01-02T01:27:18.799Z,1013.47
2023-01-02T01:27:28.194Z,1013.37
2023-01-02T01:27:37.618Z,1013.41
2023-01-02T01:27:47.003Z,1013.39
2023-01-02T01:27:56.442Z,1013.41
2023-01-02T01:28:05.867Z,1013.42
2023-01-02T01:28:24.921Z,1013.35
2023-01-02T01:28:34.349Z,1013.39
2023-01-02T01:28:43.733Z,1013.40
2023-01-02T01:28:53.158Z,1013.40
2023-01-02T01:29:02.577Z,1013.41
2023-01-02T01:29:12.029Z,1013.38
2023-01-02T01:29:21.450Z,1013.44
2023-01-02T01:29:30.847Z,1013.47
2023-01-02T01:29:40.225Z,1013.44
2023-01-02T01:29:49.619Z,1013.46
2023-01-02T01:29:59.028Z,1013.44
2023-01-02T01:30:08.478Z,1013.46
2023-01-02T01:30:17.899Z,1013.41
2023-01-02T01:30:27.306Z,1013.45
2023-01-02T01:30:36.704Z,1013.45
2023-01-02T01:30:46.107Z,1013.46
2023-01-02T01:30:55.528Z,1013.44
2023-01-02T01:31:14.419Z,1013.47
2023-01-02T01:31:23.997Z,1013.41
2023-01-02T01:31:33.308Z,1013.44
2023-01-02T01:31:42.697Z,1013.42
2023-01-02T01:31:52.224Z,1013.41
2023-01-02T01:32:01.708Z,1013.43
2023-01-02T01:32:10.942Z,1013.41
2023-01-02T01:32:20.360Z,1013.42
2023-01-02T01:32:29.760Z,1013.38
2023-01-02T01:32:39.201Z,1013.43
2023-01-02T01:32:48.611Z,1013.41
2023-01-02T01:32:58.034Z,1013.38
2023-01-02T01:33:07.436Z,1013.44
2023-01-02T01:33:16.839Z,1013.38
2023-01-02T01:33:26.264Z,1013.45
2023-01-02T01:33:35.668Z,1013.40
2023-01-02T01:33:54.530Z,1013.40
2023-01-02T01:34:03.950Z,1013.44
2023-01-02T01:34:13.663Z,1013.36
2023-01-02T01:34:23.071Z,1013.40
2023-01-02T01:34:32.582Z,1013.45
2023-01-02T01:34:42.022Z,1013.46
2023-01-02T01:34:51.525Z,1013.48
2023-01-02T01:35:00.933Z,1013.42
2023-01-02T01:35:10.346Z,1013.38
2023-01-02T01:35:19.821Z,1013.46
2023-01-02T01:35:29.234Z,1013.41
2023-01-02T01:35:38.640Z,1013.40
2023-01-02T01:35:48.070Z,1013.45
2023-01-02T01:35:57.481Z,1013.34
2023-01-02T01:36:06.871Z,1013.42
2023-01-02T01:36:16.299Z,1013.41
2023-01-02T01:36:25.680Z,1013.41
2023-01-02T01:36:44.470Z,1013.45
2023-01-02T01:36:53.873Z,1013.35
2023-01-02T01:37:03.290Z,1013.34
2023-01-02T01:37:12.696Z,1013.40
2023-01-02T01:37:22.084Z,1013.47
2023-01-02T01:37:31.525Z,1013.38
2023-01-02T01:37:40.926Z,1013.47
2023-01-02T01:37:50.311Z,1013.42
2023-01-02T01:37:59.705Z,1013.43
2023-01-02T01:38:09.137Z,1013.36
2023-01-02T01:38:18.542Z,1013.42
2023-01-02T01:38:27.928Z,1013.36
2023-01-02T01:38:37.342Z,1013.36
2023-01-02T01:38:46.788Z,1013.32
2023-01-02T01:38:56.245Z,1013.29
2023-01-02T01:39:05.657Z,1013.36
2023-01-02T01:39:24.491Z,1013.38
2023-01-02T01:39:33.898Z,1013.32
2023-01-02T01:39:43.336Z,1013.40
2023-01-02T01:39:56.525Z,1013.40
2023-01-02T01:40:02.244Z,1013.30
2023-01-02T01:40:11.643Z,1013.30
2023-01-02T01:40:21.054Z,1013.40
2023-01-02T01:40:30.467Z,1013.31
2023-01-02T01:40:39.858Z,1013.35
2023-01-02T01:40:49.254Z,1013.28
2023-01-02T01:40:58.670Z,1013.32
2023-01-02T01:41:08.099Z,1013.31
2023-01-02T01:41:17.544Z,1013.33
2023-01-02T01:41:26.923Z,1013.28
2023-01-02T01:41:36.356Z,1013.29
2023-01-02T01:41:45.785Z,1013.34
2023-01-02T01:42:04.593Z,1013.30
2023-01-02T01:42:14.017Z,1013.27
2023-01-02T01:42:23.424Z,1013.34
2023-01-02T01:42:32.858Z,1013.31
2023-01-02T01:42:42.267Z,1013.29
2023-01-02T01:42:53.939Z,1013.35
2023-01-02T01:43:01.318Z,1013.27
2023-01-02T01:43:10.555Z,1013.31
2023-01-02T01:43:20.027Z,1013.27
2023-01-02T01:43:29.425Z,1013.29
2023-01-02T01:43:38.843Z,1013.33
2023-01-02T01:43:48.285Z,1013.33
2023-01-02T01:43:57.711Z,1013.33
2023-01-02T01:44:07.111Z,1013.30
2023-01-02T01:44:16.521Z,1013.32
2023-01-02T01:44:25.936Z,1013.27
2023-01-02T01:44:44.788Z,1013.31
2023-01-02T01:44:54.186Z,1013.28
2023-01-02T01:45:03.642Z,1013.28
2023-01-02T01:45:13.050Z,1013.37
2023-01-02T01:45:22.467Z,1013.31
2023-01-02T01:45:31.917Z,1013.32
2023-01-02T01:45:41.362Z,1013.32
2023-01-02T01:45:50.799Z,1013.24
2023-01-02T01:46:00.249Z,1013.34
2023-01-02T01:46:09.657Z,1013.32
2023-01-02T01:46:18.988Z,1013.35
2023-01-02T01:46:28.385Z,1013.28
2023-01-02T01:46:37.886Z,1013.37
2023-01-02T01:46:47.301Z,1013.33
2023-01-02T01:46:56.692Z,1013.27
2023-01-02T01:47:06.124Z,1013.32
2023-01-02T01:47:15.515Z,1013.29
2023-01-02T01:47:34.353Z,1013.29
2023-01-02T01:47:43.804Z,1013.34
2023-01-02T01:47:53.186Z,1013.34
2023-01-02T01:48:02.613Z,1013.28
2023-01-02T01:48:12.027Z,1013.29
2023-01-02T01:48:21.448Z,1013.27
2023-01-02T01:48:30.870Z,1013.23
2023-01-02T01:48:40.300Z,1013.24
2023-01-02T01:48:49.719Z,1013.29
2023-01-02T01:48:59.104Z,1013.27
2023-01-02T01:49:08.533Z,1013.25
2023-01-02T01:49:18.000Z,1013.24
2023-01-02T01:49:27.402Z,1013.27
2023-01-02T01:49:36.818Z,1013.28
2023-01-02T01:49:46.239Z,1013.24
2023-01-02T01:49:58.601Z,1013.21
2023-01-02T01:50:14.538Z,1013.19
2023-01-02T01:50:23.947Z,1013.21
2023-01-02T01:50:33.338Z,1013.22
2023-01-02T01:50:42.748Z,1013.28
2023-01-02T01:50:52.163Z,1013.24
2023-01-02T01:51:01.587Z,1013.23
2023-01-02T01:51:11.000Z,1013.20
2023-01-02T01:51:20.449Z,1013.20
2023-01-02T01:51:29.866Z,1013.20
2023-01-02T01:51:39.349Z,1013.25
2023-01-02T01:51:48.752Z,1013.17
2023-01-02T01:51:58.144Z,1013.17
2023-01-02T01:52:07.540Z,1013.16
2023-01-02T01:52:16.939Z,1013.18
2023-01-02T01:52:26.394Z,1013.21
2023-01-02T01:52:35.775Z,1013.18
2023-01-02T01:52:54.653Z,1013.14
2023-01-02T01:53:04.062Z,1013.16
2023-01-02T01:53:13.528Z,1013.16
2023-01-02T01:53:22.946Z,1013.15
2023-01-02T01:53:32.328Z,1013.11
2023-01-02T01:53:41.760Z,1013.13
2023-01-02T01:53:51.145Z,1013.04
2023-01-02T01:54:00.532Z,1013.08
2023-01-02T01:54:09.951Z,1013.05
2023-01-02T01:54:19.392Z,1013.11
2023-01-02T01:54:28.775Z,1013.11
2023-01-02T01:54:38.197Z,1013.05
2023-01-02T01:54:47.601Z,1013.10
2023-01-02T01:54:57.006Z,1012.99
2023-01-02T01:55:06.437Z,1012.99
2023-01-02T01:55:15.834Z,1013.04
2023-01-02T01:55:34.669Z,1013.07
2023-01-02T01:55:44.123Z,1012.99
2023-01-02T01:55:53.519Z,1013.04
2023-01-02T01:56:02.943Z,1012.97
2023-01-02T01:56:12.368Z,1012.99
2023-01-02T01:56:21.820Z,1012.99
2023-01-02T01:56:31.240Z,1013.03
2023-01-02T01:56:40.635Z,1012.98
2023-01-02T01:56:50.044Z,1013.01
2023-01-02T01:56:59.438Z,1012.96
2023-01-02T01:57:08.849Z,1012.99
2023-01-02T01:57:18.273Z,1012.98
2023-01-02T01:57:27.690Z,1012.99
2023-01-02T01:57:37.096Z,1013.04
2023-01-02T01:57:46.506Z,1012.96
2023-01-02T01:57:55.904Z,1013.01
2023-01-02T01:58:14.722Z,1012.95
2023-01-02T01:58:24.146Z,1012.94
2023-01-02T01:58:33.547Z,1012.95
2023-01-02T01:58:42.991Z,1012.92
2023-01-02T01:58:52.394Z,1012.97
2023-01-02T01:59:01.838Z,1012.94
2023-01-02T01:59:11.218Z,1012.93
2023-01-02T01:59:20.676Z,1012.92
2023-01-02T01:59:30.098Z,1012.91
2023-01-02T01:59:39.506Z,1012.89
2023-01-02T01:59:48.896Z,1012.94
2023-01-02T01:59:58.332Z,1012.92
2023-01-02T02:00:07.722Z,1012.82
2023-01-02T02:00:17.134Z,1012.81
2023-01-02T02:00:26.558Z,1012.83
2023-01-02T02:00:36.022Z,1012.83
2023-01-02T02:00:45.526Z,1012.89